Huvudsida
METAR-TAF:

METAR-TAF

Flygplatser :

Mora-Siljan flygplats

Mora, Sverige

latitud: 60-57-31N, longitud: 14-30-40E, höjd: 193 m

Aktuellt väderrapport

Denna rapport gjordes för 10 minuter sedan, klockan 22:20 UTC
Vind 4 kt från ost/sydost
Temperatur 0°C
Fuktighet 100%
Tryck 1006 hPa
Sikt: 3400 m
lätt snö

METAR: ESKM 112220Z AUTO 11004KT 3400 -SN VV017 M00/M00 Q1006

Tid: 23:30 (22:30 UTC)


TAF: saknas

Aktuella väderrapporter och prognoser från 4000 flygplatser (METAR- och TAF-rapporter).

De tillgängliga stationerna syns som gula och röda prickar på kartan.

För musen över prickarna för att se namnen på stationerna.

Klicka sedan för att få väderrapporter och prognoser.

För att ändra kartan: Klicka på de gröna knapparna med ett svart kors på för att zooma in; den gröna knappen med ett streck på för att zooma ut; eller på de gröna pilarna för angränsande kartor.


METAR-TAF: